Terminal Aerodrome Forecast
Issued by NWS

Home | Current Version | Previous Version | Graphics & Text | Print | Product List | Glossary On
Versions: 1 2 3 4 5 6 7 8 9 10 11 12 13 14 15 16
948
FTUS41 KCLE 171740
TAFFDY
TAF
KFDY 171740Z 1718/1818 26015G25KT P6SM OVC035
      TEMPO 1718/1722 3SM -SHSN
     FM180100 29008KT P6SM SCT035
     FM181000 VRB03KT P6SM SKC
     FM181600 13007KT P6SM SKC=

USA.gov is the U.S. government's official web portal to all federal, state and local government web resources and services.